Time;durP1;ratioP1;P1;durP2;ratioP2;P2;SDS_P1;SDS_P2;PMS_P1;PMS_P2;Temp;Humidity;BMP_temperature;BMP_pressure;BME280_temperature;BME280_humidity;BME280_pressure;Samples;Min_cycle;Max_cycle;Signal;HPM_P1;HPM_P2
2022/04/01 00:00:55;;;;;;;6.55;4.03;;;;;;;-0.48;100.00;100565.44;4985906;28;20037;-65
2022/04/01 00:03:20;;;;;;;7.63;4.78;;;;;;;-0.49;100.00;100559.38;4983631;28;20046;-65
2022/04/01 00:05:46;;;;;;;8.77;4.95;;;;;;;-0.51;100.00;100559.38;4992259;28;20030;-65
2022/04/01 00:08:11;;;;;;;7.90;5.18;;;;;;;-0.47;100.00;100556.75;4995032;28;20034;-65
2022/04/01 00:10:37;;;;;;;10.90;4.47;;;;;;;-0.49;100.00;100561.97;4994125;28;20029;-65
2022/04/01 00:13:03;;;;;;;8.55;4.72;;;;;;;-0.48;100.00;100579.31;5000263;28;20026;-66
2022/04/01 00:15:29;;;;;;;7.78;4.60;;;;;;;-0.52;100.00;100570.66;4994686;28;20425;-67
2022/04/01 00:17:56;;;;;;;8.15;4.30;;;;;;;-0.50;100.00;100565.44;4984005;28;20050;-66
2022/04/01 00:20:21;;;;;;;6.35;3.78;;;;;;;-0.50;100.00;100575.84;4976608;28;20034;-66
2022/04/01 00:22:47;;;;;;;10.15;4.95;;;;;;;-0.54;100.00;100571.53;4990154;28;20371;-65
2022/04/01 00:25:14;;;;;;;7.40;5.00;;;;;;;-0.55;100.00;100578.47;4989810;28;20042;-66
2022/04/01 00:27:40;;;;;;;8.02;5.32;;;;;;;-0.54;100.00;100580.22;4988227;28;20497;-65
2022/04/01 00:30:06;;;;;;;8.48;4.90;;;;;;;-0.56;100.00;100563.72;4991040;28;20034;-67
2022/04/01 00:32:33;;;;;;;7.07;4.93;;;;;;;-0.55;100.00;100577.59;4989925;28;20064;-67
2022/04/01 00:34:59;;;;;;;8.48;5.25;;;;;;;-0.56;100.00;100578.47;4986991;28;20030;-67
2022/04/01 00:37:25;;;;;;;8.88;4.78;;;;;;;-0.55;100.00;100575.00;4986814;28;20470;-67
2022/04/01 00:39:50;;;;;;;10.80;5.63;;;;;;;-0.57;100.00;100582.81;4990658;28;20030;-67
2022/04/01 00:42:16;;;;;;;9.98;5.30;;;;;;;-0.60;100.00;100593.22;4991181;28;20030;-66
2022/04/01 00:44:41;;;;;;;8.40;5.15;;;;;;;-0.58;100.00;100578.47;4974689;28;20042;-67
2022/04/01 00:47:10;;;;;;;7.60;4.97;;;;;;;-0.57;100.00;100585.41;4992039;28;20084;-66
2022/04/01 00:49:36;;;;;;;8.18;5.15;;;;;;;-0.57;100.00;100581.94;4990184;28;20022;-68
2022/04/01 00:52:07;;;;;;;8.27;4.63;;;;;;;-0.60;100.00;100601.03;4990678;28;20572;-67
2022/04/01 00:54:34;;;;;;;7.30;4.90;;;;;;;-0.59;100.00;100597.56;4988866;28;20026;-66
2022/04/01 00:57:00;;;;;;;6.25;4.00;;;;;;;-0.60;100.00;100588.03;4982573;28;20398;-66
2022/04/01 00:59:25;;;;;;;6.93;4.20;;;;;;;-0.63;100.00;100595.81;4991092;28;20031;-66
2022/04/01 01:01:51;;;;;;;8.30;5.20;;;;;;;-0.62;100.00;100610.56;4969773;28;20045;-67
2022/04/01 01:04:19;;;;;;;8.82;4.90;;;;;;;-0.63;100.00;100607.97;4986643;28;20029;-67
2022/04/01 01:06:50;;;;;;;8.80;5.03;;;;;;;-0.66;100.00;100598.44;4991853;28;20047;-68
2022/04/01 01:09:16;;;;;;;7.47;4.45;;;;;;;-0.65;100.00;100592.38;4987060;28;20041;-67
2022/04/01 01:11:45;;;;;;;9.07;4.97;;;;;;;-0.67;100.00;100607.09;4990403;28;20557;-68
2022/04/01 01:14:13;;;;;;;8.85;4.60;;;;;;;-0.64;100.00;100612.28;4980222;28;20448;-68
2022/04/01 01:16:46;;;;;;;10.80;5.80;;;;;;;-0.68;100.00;100608.84;4987166;28;20049;-68
2022/04/01 01:19:15;;;;;;;8.23;4.40;;;;;;;-0.67;100.00;100609.72;4985465;28;20046;-68
2022/04/01 01:21:42;;;;;;;7.85;4.57;;;;;;;-0.64;100.00;100595.81;4969179;28;20061;-68
2022/04/01 01:24:11;;;;;;;7.68;4.25;;;;;;;-0.63;100.00;100620.97;4986956;28;20038;-67
2022/04/01 01:26:38;;;;;;;9.93;4.80;;;;;;;-0.63;100.00;100593.22;5005607;28;20105;-67
2022/04/01 01:29:05;;;;;;;10.02;4.93;;;;;;;-0.61;100.00;100601.91;4990137;28;20037;-68
2022/04/01 01:31:30;;;;;;;9.05;4.70;;;;;;;-0.63;100.00;100618.38;4997905;28;20034;-68
2022/04/01 01:33:57;;;;;;;8.32;4.85;;;;;;;-0.60;100.00;100600.16;4988234;28;20037;-68
2022/04/01 01:36:25;;;;;;;10.75;5.50;;;;;;;-0.62;100.00;100620.09;5003219;28;20362;-68
2022/04/01 01:38:51;;;;;;;10.90;5.72;;;;;;;-0.58;100.00;100621.81;4962890;28;20474;-67
2022/04/01 01:41:16;;;;;;;8.82;5.05;;;;;;;-0.60;100.00;100623.56;4983956;28;20038;-67
2022/04/01 01:43:42;;;;;;;9.00;5.07;;;;;;;-0.61;100.00;100630.50;4966706;28;20026;-67
2022/04/01 01:46:08;;;;;;;9.52;5.40;;;;;;;-0.56;100.00;100607.94;4990782;28;20026;-67
2022/04/01 01:48:34;;;;;;;8.95;5.28;;;;;;;-0.57;100.00;100628.75;4974984;28;20037;-68
2022/04/01 01:56:27;;;;;;;7.57;4.80;;;;;;;-0.57;100.00;100632.22;4994696;28;20515;-68
2022/04/01 01:58:53;;;;;;;8.80;5.40;;;;;;;-0.58;100.00;100629.63;4992534;28;20105;-67
2022/04/01 02:01:18;;;;;;;9.38;5.63;;;;;;;-0.57;100.00;100634.81;4990449;28;20026;-67
2022/04/01 02:03:43;;;;;;;10.00;5.72;;;;;;;-0.57;100.00;100633.97;4972705;28;20041;-67
2022/04/01 02:06:09;;;;;;;8.88;5.40;;;;;;;-0.59;100.00;100623.56;4989536;28;20093;-67
2022/04/01 02:08:35;;;;;;;9.40;5.05;;;;;;;-0.62;100.00;100623.56;4991166;28;20486;-67
2022/04/01 02:11:00;;;;;;;11.38;5.80;;;;;;;-0.58;100.00;100624.44;5002239;28;20105;-67
2022/04/01 02:13:29;;;;;;;10.35;5.80;;;;;;;-0.54;100.00;100627.03;4987200;28;20118;-67
2022/04/01 02:15:55;;;;;;;9.10;5.63;;;;;;;-0.54;100.00;100633.94;4978958;28;20034;-67
2022/04/01 02:18:22;;;;;;;9.38;5.50;;;;;;;-0.55;100.00;100611.41;4987421;28;20158;-67
2022/04/01 02:20:48;;;;;;;10.98;5.90;;;;;;;-0.53;100.00;100630.47;4990356;28;20125;-67
2022/04/01 02:23:13;;;;;;;9.80;6.03;;;;;;;-0.55;100.00;100643.50;4988876;28;20482;-67
2022/04/01 02:25:42;;;;;;;10.05;5.47;;;;;;;-0.54;100.00;100631.34;4987205;28;20042;-67
2022/04/01 02:28:09;;;;;;;9.82;5.70;;;;;;;-0.54;100.00;100649.56;4973847;28;20034;-67
2022/04/01 02:30:34;;;;;;;9.80;5.95;;;;;;;-0.52;100.00;100648.69;4983475;28;20371;-67
2022/04/01 02:33:00;;;;;;;11.98;5.90;;;;;;;-0.51;100.00;100644.38;4988677;28;20038;-67
2022/04/01 02:35:26;;;;;;;8.45;5.15;;;;;;;-0.54;100.00;100645.22;4993256;28;20033;-67
2022/04/01 02:37:51;;;;;;;10.68;5.53;;;;;;;-0.52;100.00;100658.22;4988596;28;20550;-66
2022/04/01 02:40:17;;;;;;;10.75;5.70;;;;;;;-0.51;100.00;100650.41;4987334;28;20035;-67
2022/04/01 02:42:42;;;;;;;10.05;5.32;;;;;;;-0.51;100.00;100652.16;4989563;28;20030;-67
2022/04/01 02:45:08;;;;;;;9.85;5.75;;;;;;;-0.52;100.00;100655.63;4987867;28;20085;-68
2022/04/01 02:47:33;;;;;;;12.15;5.95;;;;;;;-0.51;100.00;100658.22;4978173;28;20035;-67
2022/04/01 02:50:00;;;;;;;7.88;4.97;;;;;;;-0.53;100.00;100670.34;4979356;28;20402;-68
2022/04/01 02:52:26;;;;;;;9.65;5.88;;;;;;;-0.52;100.00;100664.28;4972128;28;20070;-68
2022/04/01 02:54:52;;;;;;;10.55;5.70;;;;;;;-0.52;100.00;100681.66;4993127;28;20034;-67
2022/04/01 02:57:18;;;;;;;8.75;5.75;;;;;;;-0.54;100.00;100667.75;4992160;28;20026;-67
2022/04/01 02:59:44;;;;;;;10.50;5.13;;;;;;;-0.53;100.00;100677.31;4988701;28;20043;-67
2022/04/01 03:02:09;;;;;;;9.43;5.85;;;;;;;-0.50;100.00;100685.97;4992529;28;20034;-67
2022/04/01 03:04:35;;;;;;;10.57;5.57;;;;;;;-0.52;100.00;100684.25;4992874;28;20064;-68
2022/04/01 03:07:01;;;;;;;9.25;5.85;;;;;;;-0.55;100.00;100689.44;4986336;28;20129;-68
2022/04/01 03:09:26;;;;;;;9.10;5.68;;;;;;;-0.53;100.00;100687.72;4983926;28;20034;-68
2022/04/01 03:11:52;;;;;;;11.38;5.80;;;;;;;-0.54;100.00;100684.25;4985155;28;20041;-68
2022/04/01 03:14:17;;;;;;;12.40;5.93;;;;;;;-0.53;100.00;100692.91;4987927;28;20601;-68
2022/04/01 03:16:43;;;;;;;9.85;6.30;;;;;;;-0.52;100.00;100690.31;4990796;28;20030;-68
2022/04/01 03:19:09;;;;;;;8.57;5.65;;;;;;;-0.53;100.00;100696.38;4994989;28;20052;-68
2022/04/01 03:21:39;;;;;;;10.38;5.78;;;;;;;-0.54;100.00;100699.84;4988085;28;20474;-67
2022/04/01 03:24:05;;;;;;;9.80;5.85;;;;;;;-0.51;100.00;100697.25;4983854;28;20035;-68
2022/04/01 03:26:31;;;;;;;11.20;6.22;;;;;;;-0.50;100.00;100701.59;4996099;28;20039;-67
2022/04/01 03:28:56;;;;;;;8.65;5.05;;;;;;;-0.55;100.00;100694.63;4988762;28;20030;-67
2022/04/01 03:31:22;;;;;;;11.38;6.00;;;;;;;-0.50;100.00;100708.50;4986140;28;20034;-68
2022/04/01 03:33:47;;;;;;;9.00;5.20;;;;;;;-0.54;100.00;100709.38;4989816;28;20545;-68
2022/04/01 03:36:13;;;;;;;8.85;5.47;;;;;;;-0.54;100.00;100701.56;4992478;28;20538;-67
2022/04/01 03:38:40;;;;;;;10.05;5.93;;;;;;;-0.55;100.00;100718.94;4971542;28;20034;-67
2022/04/01 03:41:07;;;;;;;9.93;5.78;;;;;;;-0.55;100.00;100718.94;4989166;28;20031;-68
2022/04/01 03:43:35;;;;;;;9.60;5.47;;;;;;;-0.56;100.00;100725.00;4963889;28;20034;-68
2022/04/01 03:46:06;;;;;;;11.13;5.75;;;;;;;-0.52;100.00;100726.72;4986228;28;20029;-68
2022/04/01 03:48:48;;;;;;;9.35;5.00;;;;;;;-0.52;100.00;100725.88;4989100;28;20090;-68
2022/04/01 03:51:25;;;;;;;11.00;6.03;;;;;;;-0.52;100.00;100737.13;5001326;28;20034;-67
2022/04/01 03:54:00;;;;;;;10.93;5.82;;;;;;;-0.55;100.00;100736.25;4988678;28;20556;-67
2022/04/01 03:56:31;;;;;;;9.30;5.45;;;;;;;-0.54;100.00;100736.28;4984243;28;20030;-67
2022/04/01 03:59:06;;;;;;;9.65;5.28;;;;;;;-0.53;100.00;100742.34;4983955;28;20026;-67
2022/04/01 04:01:34;;;;;;;10.23;5.05;;;;;;;-0.53;100.00;100739.72;4986385;28;20018;-70
2022/04/01 04:04:00;;;;;;;7.80;5.07;;;;;;;-0.54;100.00;100735.38;4986620;28;20101;-67
2022/04/01 04:06:26;;;;;;;8.75;5.35;;;;;;;-0.51;100.00;100753.63;5001917;28;20034;-67
2022/04/01 04:08:57;;;;;;;9.55;5.65;;;;;;;-0.52;100.00;100757.06;5000668;28;20038;-67
2022/04/01 04:11:28;;;;;;;11.00;5.25;;;;;;;-0.47;100.00;100757.06;4978232;28;20599;-68
2022/04/01 04:13:55;;;;;;;8.00;5.07;;;;;;;-0.52;100.00;100763.13;4981186;28;20034;-68
2022/04/01 04:16:45;;;;;;;10.80;5.53;;;;;;;-0.50;100.00;100771.81;4988015;28;20019;-68
2022/04/01 04:19:24;;;;;;;8.50;5.07;;;;;;;-0.52;100.00;100764.88;4986212;28;20042;-68
2022/04/01 04:22:00;;;;;;;10.82;5.53;;;;;;;-0.51;100.00;100764.88;4985837;28;20026;-68
2022/04/01 04:24:30;;;;;;;9.57;5.15;;;;;;;-0.53;100.00;100776.16;4982997;28;20033;-69
2022/04/01 04:27:10;;;;;;;13.13;5.32;;;;;;;-0.53;100.00;100774.41;4986806;28;20045;-68
2022/04/01 04:29:51;;;;;;;6.47;4.05;;;;;;;-0.47;100.00;100781.34;4988956;28;20026;-68
2022/04/01 04:32:47;;;;;;;10.50;4.40;;;;;;;-0.47;100.00;100793.47;4986509;28;20496;-68
2022/04/01 04:35:13;;;;;;;9.95;4.82;;;;;;;-0.51;100.00;100787.44;4979096;28;20093;-68
2022/04/01 04:37:45;;;;;;;6.88;3.65;;;;;;;-0.50;100.00;100792.63;4986719;28;20358;-68
2022/04/01 04:40:12;;;;;;;9.45;4.93;;;;;;;-0.48;100.00;100797.81;4992889;28;20110;-68
2022/04/01 04:42:44;;;;;;;8.95;5.43;;;;;;;-0.48;100.00;100799.56;4988770;28;20116;-67
2022/04/01 04:45:11;;;;;;;9.10;5.30;;;;;;;-0.47;100.00;100794.38;4979300;28;20545;-68
2022/04/01 04:47:37;;;;;;;11.75;5.60;;;;;;;-0.45;100.00;100799.56;4992556;28;20482;-68
2022/04/01 04:50:03;;;;;;;7.43;4.50;;;;;;;-0.45;100.00;100808.22;4981666;28;20037;-68
2022/04/01 04:52:32;;;;;;;14.07;5.22;;;;;;;-0.47;100.00;100812.56;5000014;28;20409;-67
2022/04/01 04:55:03;;;;;;;11.15;4.50;;;;;;;-0.44;100.00;100811.72;4984603;28;20048;-67
2022/04/01 04:57:28;;;;;;;10.88;4.80;;;;;;;-0.46;100.00;100814.31;4986685;28;20412;-67
2022/04/01 04:59:57;;;;;;;9.38;4.43;;;;;;;-0.45;100.00;100812.56;4988546;28;20089;-67
2022/04/01 05:02:58;;;;;;;7.72;4.30;;;;;;;-0.45;100.00;100823.81;4971075;28;20034;-67
2022/04/01 05:05:43;;;;;;;9.83;4.63;;;;;;;-0.43;100.00;100836.84;4976406;28;20529;-67
2022/04/01 05:08:27;;;;;;;8.23;4.03;;;;;;;-0.44;100.00;100854.19;4984923;28;20076;-67
2022/04/01 05:11:13;;;;;;;8.60;3.85;;;;;;;-0.41;100.00;100849.00;4977811;28;20057;-67
2022/04/01 05:14:05;;;;;;;10.43;4.40;;;;;;;-0.41;100.00;100848.13;4993072;28;20114;-68
2022/04/01 05:16:39;;;;;;;8.32;4.32;;;;;;;-0.42;100.00;100851.56;4968302;28;20077;-68
2022/04/01 05:19:09;;;;;;;7.50;4.63;;;;;;;-0.43;100.00;100853.31;5004228;28;20057;-67
2022/04/01 05:21:50;;;;;;;9.93;4.97;;;;;;;-0.43;100.00;100862.88;4981153;28;20918;-68
2022/04/01 05:24:23;;;;;;;9.43;3.90;;;;;;;-0.37;100.00;100861.13;4987719;28;20473;-67
2022/04/01 05:26:55;;;;;;;9.38;4.20;;;;;;;-0.38;100.00;100861.16;4999414;28;20041;-67
2022/04/01 05:29:25;;;;;;;8.80;4.30;;;;;;;-0.37;100.00;100874.16;4999165;28;20405;-67
2022/04/01 05:32:03;;;;;;;6.90;3.50;;;;;;;-0.34;100.00;100875.88;5009150;28;20030;-67
2022/04/01 05:34:39;;;;;;;7.93;4.00;;;;;;;-0.38;100.00;100888.03;5003677;28;20385;-67
2022/04/01 05:37:06;;;;;;;7.15;3.33;;;;;;;-0.35;100.00;100894.97;4988929;28;20026;-67
2022/04/01 05:39:33;;;;;;;5.20;2.92;;;;;;;-0.34;100.00;100883.69;4996941;28;20026;-68
2022/04/01 05:41:59;;;;;;;8.07;3.42;;;;;;;-0.27;100.00;100889.75;4999772;28;20034;-67
2022/04/01 05:44:25;;;;;;;8.07;3.50;;;;;;;-0.25;100.00;100914.06;5003940;28;20054;-67
2022/04/01 05:46:51;;;;;;;8.55;3.60;;;;;;;-0.26;100.00;100904.50;4991998;28;20093;-68
2022/04/01 05:49:18;;;;;;;9.38;3.60;;;;;;;-0.28;100.00;100914.03;4987298;28;20041;-68
2022/04/01 05:51:46;;;;;;;4.75;3.20;;;;;;;-0.27;100.00;100911.47;4985232;28;20490;-69
2022/04/01 05:54:14;;;;;;;7.97;3.47;;;;;;;-0.26;100.00;100914.91;4980855;28;20100;-67
2022/04/01 05:56:44;;;;;;;5.50;3.00;;;;;;;-0.26;100.00;100917.53;5004487;28;20026;-67
2022/04/01 05:59:11;;;;;;;7.18;3.28;;;;;;;-0.24;100.00;100906.25;4991473;28;20026;-67
2022/04/01 06:01:58;;;;;;;6.35;3.35;;;;;;;-0.23;100.00;100934.03;4992058;28;20034;-67
2022/04/01 06:04:41;;;;;;;8.88;3.58;;;;;;;-0.20;100.00;100933.16;4988331;28;20044;-67
2022/04/01 06:07:10;;;;;;;8.00;3.25;;;;;;;-0.20;100.00;100936.59;5005870;28;20429;-67
2022/04/01 06:09:48;;;;;;;6.00;3.55;;;;;;;-0.19;100.00;100942.69;4988617;28;20387;-67
2022/04/01 06:12:34;;;;;;;9.65;3.70;;;;;;;-0.18;100.00;100937.50;4991547;28;20552;-67
2022/04/01 06:15:11;;;;;;;8.15;3.72;;;;;;;-0.12;100.00;100944.41;4989345;28;20038;-67
2022/04/01 06:17:59;;;;;;;6.60;3.45;;;;;;;-0.08;100.00;100947.91;4988985;28;20526;-67
2022/04/01 06:20:27;;;;;;;6.60;3.53;;;;;;;-0.02;100.00;100958.31;4993086;28;20033;-68
2022/04/01 06:23:03;;;;;;;30.67;3.97;;;;;;;0.06;100.00;100950.53;4993735;28;20033;-68
2022/04/01 06:25:30;;;;;;;7.63;3.67;;;;;;;0.07;100.00;100960.06;4990934;28;20529;-68
2022/04/01 06:28:13;;;;;;;7.38;3.75;;;;;;;0.16;100.00;100953.09;4989681;28;20027;-68
2022/04/01 06:30:41;;;;;;;5.95;3.25;;;;;;;0.23;100.00;100958.31;4968225;28;20023;-67
2022/04/01 06:33:31;;;;;;;6.25;3.42;;;;;;;0.26;100.00;100961.81;4994081;28;20042;-68
2022/04/01 06:36:00;;;;;;;6.65;3.38;;;;;;;0.36;100.00;100957.47;4999570;28;20504;-67
2022/04/01 06:39:01;;;;;;;8.52;3.65;;;;;;;0.36;100.00;100967.88;4998647;28;20022;-66
2022/04/01 06:41:31;;;;;;;6.13;3.22;;;;;;;0.41;100.00;100970.47;4997729;28;20030;-67
2022/04/01 06:43:57;;;;;;;6.90;3.25;;;;;;;0.54;100.00;100981.75;4999421;28;20042;-67
2022/04/01 06:46:23;;;;;;;7.78;3.30;;;;;;;0.61;100.00;100978.28;5006503;28;20560;-66
2022/04/01 06:48:48;;;;;;;6.95;3.10;;;;;;;0.68;100.00;100976.50;5008969;28;20122;-68
2022/04/01 06:51:14;;;;;;;6.70;3.20;;;;;;;0.75;100.00;100983.47;5012998;28;20446;-67
2022/04/01 06:53:41;;;;;;;7.80;2.97;;;;;;;0.80;100.00;100993.00;4996415;28;20038;-67
2022/04/01 06:56:08;;;;;;;7.22;3.03;;;;;;;0.86;100.00;100992.13;4978386;28;20579;-67
2022/04/01 06:58:34;;;;;;;6.53;2.92;;;;;;;0.95;100.00;101009.50;4993030;28;21630;-68
2022/04/01 07:00:59;;;;;;;7.05;2.85;;;;;;;0.95;100.00;101001.69;5008783;28;20026;-68
2022/04/01 07:03:24;;;;;;;6.82;3.10;;;;;;;0.94;100.00;100995.56;5004198;28;20044;-67
2022/04/01 07:05:51;;;;;;;7.22;2.75;;;;;;;1.03;100.00;100993.81;4992873;28;20133;-68
2022/04/01 07:08:17;;;;;;;7.70;2.92;;;;;;;1.03;100.00;101002.50;4987498;28;20030;-70
2022/04/01 07:10:44;;;;;;;5.65;2.60;;;;;;;1.02;100.00;101011.19;4993366;28;20026;-70
2022/04/01 07:13:10;;;;;;;6.22;2.50;;;;;;;1.11;100.00;101007.69;5005297;28;20026;-68
2022/04/01 07:15:36;;;;;;;4.50;2.20;;;;;;;1.13;100.00;101005.97;5028483;28;20374;-67
2022/04/01 07:18:02;;;;;;;5.28;2.42;;;;;;;1.14;100.00;101008.56;5004147;28;20453;-67
2022/04/01 07:20:28;;;;;;;4.43;2.20;;;;;;;1.17;100.00;101014.66;4992641;28;20031;-67
2022/04/01 07:22:54;;;;;;;2.97;2.10;;;;;;;1.20;100.00;101022.47;4991525;28;20367;-67
2022/04/01 07:25:21;;;;;;;5.03;2.30;;;;;;;1.22;100.00;101011.16;4993273;28;20041;-67
2022/04/01 07:27:46;;;;;;;7.05;2.55;;;;;;;1.25;100.00;101016.38;4993031;28;20502;-67
2022/04/01 07:30:12;;;;;;;7.05;2.78;;;;;;;1.29;100.00;101018.09;4993287;28;20038;-67
2022/04/01 07:32:39;;;;;;;5.95;2.55;;;;;;;1.40;100.00;101006.75;4992641;28;20030;-67
2022/04/01 07:35:09;;;;;;;4.82;2.70;;;;;;;1.53;100.00;101028.44;4972759;28;20394;-67
2022/04/01 07:37:34;;;;;;;4.22;2.00;;;;;;;1.69;98.78;101024.88;4973639;28;20027;-67
2022/04/01 07:40:00;;;;;;;5.63;1.88;;;;;;;1.79;97.04;101030.88;4988682;28;20034;-67
2022/04/01 07:42:27;;;;;;;2.72;1.90;;;;;;;1.87;93.55;101023.03;4985520;28;20030;-68
2022/04/01 07:44:52;;;;;;;3.90;2.00;;;;;;;1.96;92.63;101028.22;4956774;28;20050;-67
2022/04/01 07:47:19;;;;;;;7.00;2.45;;;;;;;2.07;94.79;101029.00;4991710;28;20121;-67
2022/04/01 07:49:46;;;;;;;6.63;2.08;;;;;;;2.20;90.27;101032.41;5004784;28;20474;-67
2022/04/01 07:52:13;;;;;;;4.65;2.00;;;;;;;2.23;90.10;101016.69;5005709;28;20113;-67
2022/04/01 07:54:42;;;;;;;3.53;1.85;;;;;;;2.32;88.74;101034.03;4998778;28;20386;-67
2022/04/01 07:57:08;;;;;;;3.90;1.95;;;;;;;2.43;89.07;101047.03;4989467;28;20029;-70
2022/04/01 07:59:35;;;;;;;4.97;1.70;;;;;;;2.59;86.91;101040.78;4991740;28;20042;-69
2022/04/01 08:02:01;;;;;;;4.82;1.85;;;;;;;2.65;85.98;101044.22;4975359;28;20022;-69
2022/04/01 08:04:27;;;;;;;4.25;1.85;;;;;;;2.82;86.33;101044.94;4990996;28;20069;-70
2022/04/01 08:06:53;;;;;;;4.60;1.95;;;;;;;2.99;86.14;101052.63;4997544;28;20026;-69
2022/04/01 08:09:19;;;;;;;4.28;1.90;;;;;;;3.17;86.79;101042.84;5000854;28;20110;-69
2022/04/01 08:11:44;;;;;;;4.57;2.45;;;;;;;3.27;86.20;101048.00;4993704;28;20158;-69
2022/04/01 08:14:09;;;;;;;4.15;1.98;;;;;;;3.50;84.33;101052.06;4991878;28;20038;-69
2022/04/01 08:16:35;;;;;;;4.93;1.95;;;;;;;3.53;85.00;101059.03;4975145;28;20497;-69
2022/04/01 08:19:00;;;;;;;4.20;1.55;;;;;;;3.58;84.14;101059.81;4992119;28;20133;-69
2022/04/01 08:21:26;;;;;;;4.47;2.10;;;;;;;3.61;84.23;101065.06;4997904;28;20046;-69
2022/04/01 08:23:51;;;;;;;4.70;1.60;;;;;;;3.82;83.63;101065.66;4992103;28;20041;-70
2022/04/01 08:26:17;;;;;;;6.30;2.10;;;;;;;3.92;78.11;101067.25;4992224;28;20081;-68
2022/04/01 08:28:42;;;;;;;3.88;1.98;;;;;;;3.83;78.00;101070.00;4992012;28;20024;-68
2022/04/01 08:31:09;;;;;;;6.38;1.70;;;;;;;3.77;75.37;101063.97;5023905;28;20038;-68
2022/04/01 08:33:35;;;;;;;2.25;1.73;;;;;;;3.91;78.71;101073.38;4975235;28;20113;-67
2022/04/01 08:36:01;;;;;;;3.70;1.60;;;;;;;4.06;77.43;101082.81;4974496;28;20474;-67
2022/04/01 08:38:26;;;;;;;2.45;1.58;;;;;;;4.14;75.18;101087.94;4991798;28;20105;-68
2022/04/01 08:40:52;;;;;;;3.88;1.70;;;;;;;4.15;73.91;101105.41;4978089;28;20042;-68
2022/04/01 08:43:33;;;;;;;2.80;1.55;;;;;;;4.23;75.50;101088.69;5002892;28;20112;-67
2022/04/01 08:46:03;;;;;;;3.58;1.75;;;;;;;4.59;74.40;101091.63;5011833;28;20049;-69
2022/04/01 08:48:29;;;;;;;3.17;1.80;;;;;;;4.86;75.59;101091.19;5011877;28;20282;-68
2022/04/01 08:50:54;;;;;;;3.83;1.70;;;;;;;4.84;71.41;101104.31;4990688;28;20148;-68
2022/04/01 08:53:20;;;;;;;2.60;1.42;;;;;;;4.84;71.36;101095.59;4992326;28;20085;-68
2022/04/01 08:55:47;;;;;;;4.25;1.70;;;;;;;4.70;70.76;101099.31;4994398;28;20561;-68
2022/04/01 08:58:16;;;;;;;2.20;1.60;;;;;;;4.40;71.63;101101.53;4996421;28;20548;-69
2022/04/01 09:00:43;;;;;;;2.00;1.40;;;;;;;4.21;70.83;101113.19;4994050;28;20109;-69
2022/04/01 09:03:10;;;;;;;1.88;1.40;;;;;;;4.17;71.91;101111.47;4986356;28;20092;-67
2022/04/01 09:05:37;;;;;;;3.70;1.58;;;;;;;4.35;72.29;101123.44;4995267;28;20045;-69
2022/04/01 09:08:07;;;;;;;3.35;1.40;;;;;;;4.36;71.39;101112.06;4994304;28;20057;-68
2022/04/01 09:10:57;;;;;;;3.30;1.70;;;;;;;4.22;71.02;101128.00;4989887;28;20501;-70
2022/04/01 09:13:25;;;;;;;2.63;1.30;;;;;;;4.16;73.29;101130.72;5003061;28;20080;-68
2022/04/01 09:15:51;;;;;;;2.35;1.63;;;;;;;4.12;72.21;101127.28;4985449;28;20105;-69
2022/04/01 09:18:46;;;;;;;3.80;1.58;;;;;;;4.07;71.81;101139.56;4997497;28;20390;-68
2022/04/01 09:21:13;;;;;;;3.30;1.40;;;;;;;3.98;72.67;101140.56;4995196;28;20034;-68
2022/04/01 09:23:44;;;;;;;3.42;1.42;;;;;;;4.20;75.17;101142.91;5001598;28;20026;-69
2022/04/01 09:26:10;;;;;;;3.30;1.80;;;;;;;4.31;72.52;101143.63;4991413;28;20022;-67
2022/04/01 09:28:40;;;;;;;1.85;1.40;;;;;;;4.30;71.69;101138.38;4997131;28;20023;-69
2022/04/01 09:31:10;;;;;;;3.58;1.55;;;;;;;4.40;72.65;101147.88;4989620;28;20057;-68
2022/04/01 09:33:54;;;;;;;2.53;1.42;;;;;;;4.42;69.84;101148.69;4994980;28;20026;-69
2022/04/01 09:36:25;;;;;;;4.30;1.60;;;;;;;4.49;68.99;101157.34;4994796;28;20037;-69
2022/04/01 09:39:13;;;;;;;2.85;1.77;;;;;;;4.70;71.03;101164.88;4995520;28;20113;-69
2022/04/01 09:41:45;;;;;;;4.80;1.45;;;;;;;4.91;72.48;101171.56;5016533;28;20049;-69
2022/04/01 09:44:18;;;;;;;2.65;1.50;;;;;;;4.82;67.87;101147.22;5011079;28;20062;-67
2022/04/01 09:46:50;;;;;;;2.45;1.58;;;;;;;5.05;69.11;101159.97;4994409;28;20034;-68
2022/04/01 09:49:33;;;;;;;4.90;1.60;;;;;;;5.03;70.62;101167.88;4993851;28;20022;-69
2022/04/01 09:52:00;;;;;;;3.15;1.75;;;;;;;5.22;69.21;101172.84;4995034;28;20030;-68
2022/04/01 09:54:26;;;;;;;5.68;1.85;;;;;;;5.10;70.83;101173.88;4995114;28;20049;-67
2022/04/01 09:56:55;;;;;;;4.00;1.85;;;;;;;4.88;70.61;101168.13;5007408;28;20473;-67
2022/04/01 09:59:24;;;;;;;4.28;1.85;;;;;;;4.57;72.12;101174.69;5014532;28;20022;-67
2022/04/01 10:01:49;;;;;;;4.60;2.03;;;;;;;4.71;72.56;101178.91;4995264;28;20113;-67
2022/04/01 10:04:14;;;;;;;6.78;2.20;;;;;;;4.61;71.08;101177.28;4977279;28;20125;-68
2022/04/01 10:06:41;;;;;;;4.05;2.13;;;;;;;4.40;72.44;101182.81;4992872;28;20058;-67
2022/04/01 10:09:11;;;;;;;3.50;2.00;;;;;;;4.24;73.86;101176.03;4994874;28;20038;-67
2022/04/01 10:11:42;;;;;;;3.63;1.92;;;;;;;4.21;75.16;101184.81;5000231;28;20032;-68
2022/04/01 10:14:10;;;;;;;5.22;2.13;;;;;;;4.25;74.80;101183.03;4997521;28;20034;-68
2022/04/01 10:16:36;;;;;;;3.95;1.90;;;;;;;4.32;75.87;101184.66;5008353;28;20029;-68
2022/04/01 10:19:11;;;;;;;4.85;1.95;;;;;;;4.31;72.12;101188.19;5006877;28;20051;-66
2022/04/01 10:21:40;;;;;;;3.30;1.45;;;;;;;3.93;73.62;101190.38;4994705;28;20048;-67
2022/04/01 10:24:10;;;;;;;2.20;1.50;;;;;;;3.72;74.24;101198.47;4976314;28;20121;-69
2022/04/01 10:26:40;;;;;;;2.38;1.70;;;;;;;3.69;74.69;101201.16;5003969;28;20121;-67
2022/04/01 10:29:07;;;;;;;3.20;1.40;;;;;;;3.74;74.84;101200.19;4992835;28;20030;-67
2022/04/01 10:31:32;;;;;;;5.35;1.83;;;;;;;3.77;76.00;101204.53;4993660;28;20022;-68
2022/04/01 10:34:21;;;;;;;4.00;1.88;;;;;;;3.58;76.23;101194.28;4993789;28;20036;-67
2022/04/01 10:37:00;;;;;;;3.67;1.65;;;;;;;3.79;77.14;101207.16;4993953;28;20038;-68
2022/04/01 10:39:26;;;;;;;3.63;1.42;;;;;;;3.65;77.42;101208.16;4993458;28;20030;-68
2022/04/01 10:42:11;;;;;;;4.20;2.00;;;;;;;3.90;77.53;101210.50;4993445;28;20037;-69
2022/04/01 10:44:55;;;;;;;3.50;1.85;;;;;;;3.89;73.67;101207.03;4989775;28;20681;-68
2022/04/01 10:47:23;;;;;;;2.65;1.63;;;;;;;3.88;73.70;101209.69;4993959;28;20030;-67
2022/04/01 10:52:34;;;;;;;4.35;1.90;;;;;;;4.31;76.42;101221.38;4993718;28;20049;-68
2022/04/01 10:55:02;;;;;;;3.38;1.63;;;;;;;4.25;74.27;101210.09;4992588;28;20053;-67
2022/04/01 10:57:30;;;;;;;4.10;1.50;;;;;;;4.30;72.47;101223.16;4993848;28;20038;-67
2022/04/01 11:00:00;;;;;;;4.35;1.67;;;;;;;4.45;70.11;101211.63;4992461;28;20071;-67
2022/04/01 11:02:25;;;;;;;3.53;1.25;;;;;;;4.40;71.84;101211.66;4988262;28;20034;-67
2022/04/01 11:04:52;;;;;;;2.22;1.60;;;;;;;4.20;73.21;101211.06;4992935;28;20084;-68
2022/04/01 11:07:23;;;;;;;3.17;1.48;;;;;;;4.34;74.18;101224.00;4978760;28;20027;-68
2022/04/01 11:09:50;;;;;;;1.75;1.40;;;;;;;5.02;72.92;101216.00;4988205;28;20446;-68
2022/04/01 11:12:19;;;;;;;1.60;1.50;;;;;;;4.80;67.99;101214.63;4990569;28;20370;-68
2022/04/01 11:14:53;;;;;;;2.47;1.52;;;;;;;4.50;70.71;101222.03;4993287;28;20105;-69
2022/04/01 11:17:19;;;;;;;2.53;1.70;;;;;;;4.14;70.48;101209.34;4987762;28;20028;-67
2022/04/01 11:20:01;;;;;;;3.03;1.88;;;;;;;4.09;73.40;101232.13;4990766;28;20034;-69
2022/04/01 11:23:01;;;;;;;3.65;2.00;;;;;;;4.13;72.21;101226.00;4985766;28;20026;-68
2022/04/01 11:25:32;;;;;;;3.72;1.98;;;;;;;4.15;71.94;101234.69;4983404;28;20081;-67
2022/04/01 11:28:02;;;;;;;5.15;1.83;;;;;;;4.21;72.30;101232.00;4982140;28;20129;-68
2022/04/01 11:30:32;;;;;;;3.70;1.90;;;;;;;3.98;73.88;101234.00;4987527;28;20093;-68
2022/04/01 11:33:06;;;;;;;3.58;1.90;;;;;;;4.19;71.83;101232.91;5007079;28;20177;-68
2022/04/01 11:35:34;;;;;;;3.85;2.00;;;;;;;5.09;68.59;101237.81;4992324;28;20481;-68
2022/04/01 11:38:00;;;;;;;2.75;1.83;;;;;;;5.23;67.58;101227.94;4985466;28;20030;-66
2022/04/01 11:40:29;;;;;;;4.43;1.63;;;;;;;4.74;68.85;101233.94;4981446;28;20164;-67